Time;durP1;ratioP1;P1;durP2;ratioP2;P2;SDS_P1;SDS_P2;PMS_P1;PMS_P2;Temp;Humidity;BMP_temperature;BMP_pressure;BME280_temperature;BME280_humidity;BME280_pressure;Samples;Min_cycle;Max_cycle;Signal;HPM_P1;HPM_P2
2022/05/30 00:02:14;;;;;;;0.70;0.70;;;;;;;8.05;60.26;98365.69;5153094;27;42249;-74
2022/05/30 00:04:42;;;;;;;0.80;0.80;;;;;;;8.12;60.31;98372.31;5128282;27;40152;-77
2022/05/30 00:07:10;;;;;;;0.93;0.57;;;;;;;8.08;59.99;98371.66;5135067;27;42554;-77
2022/05/30 00:09:39;;;;;;;0.90;0.87;;;;;;;8.01;60.07;98362.41;5152207;27;42894;-74
2022/05/30 00:12:08;;;;;;;1.77;0.80;;;;;;;8.09;60.15;98373.34;5134124;27;43173;-74
2022/05/30 00:14:36;;;;;;;0.60;0.60;;;;;;;8.08;59.78;98374.28;5152771;27;40728;-76
2022/05/30 00:17:03;;;;;;;0.70;0.70;;;;;;;8.07;59.91;98375.22;5149788;27;42720;-76
2022/05/30 00:19:31;;;;;;;0.70;0.70;;;;;;;7.95;60.00;98354.84;5133510;27;41881;-77
2022/05/30 00:21:58;;;;;;;1.20;0.70;;;;;;;7.78;59.74;98337.44;5153097;27;42607;-77
2022/05/30 00:24:26;;;;;;;0.43;0.43;;;;;;;8.01;59.77;98375.59;5134656;27;40341;-76
2022/05/30 00:26:54;;;;;;;0.77;0.73;;;;;;;7.94;59.91;98363.72;5134307;27;40687;-77
2022/05/30 00:29:22;;;;;;;0.93;0.60;;;;;;;7.96;59.91;98375.00;5128024;27;43242;-77
2022/05/30 00:31:49;;;;;;;0.67;0.67;;;;;;;7.93;60.27;98362.84;5153139;27;42987;-77
2022/05/30 00:34:20;;;;;;;0.97;0.80;;;;;;;7.92;60.35;98369.06;5147323;27;40666;-77
2022/05/30 00:36:47;;;;;;;0.70;0.70;;;;;;;7.90;60.83;98354.31;5151455;27;41909;-80
2022/05/30 00:39:15;;;;;;;0.80;0.80;;;;;;;7.88;60.45;98359.66;5133901;27;44525;-75
2022/05/30 00:41:43;;;;;;;0.77;0.77;;;;;;;7.86;60.42;98355.41;5151851;27;41084;-78
2022/05/30 00:44:13;;;;;;;1.00;0.90;;;;;;;7.83;60.33;98356.44;5134233;27;39260;-77
2022/05/30 00:46:40;;;;;;;0.60;0.60;;;;;;;7.70;60.14;98334.38;5155525;27;40789;-74
2022/05/30 00:49:11;;;;;;;0.70;0.60;;;;;;;7.71;60.54;98346.63;5155597;27;43516;-76
2022/05/30 00:51:42;;;;;;;0.53;0.53;;;;;;;7.75;60.82;98353.41;5138087;27;41336;-77
2022/05/30 00:54:13;;;;;;;1.07;0.90;;;;;;;7.72;61.36;98352.75;5145704;27;41103;-75
2022/05/30 00:56:45;;;;;;;0.87;0.80;;;;;;;7.65;61.13;98340.88;5154812;27;41786;-75
2022/05/30 00:59:15;;;;;;;1.40;0.70;;;;;;;7.63;61.13;98353.28;5154822;27;42097;-74
2022/05/30 01:01:42;;;;;;;2.27;0.70;;;;;;;7.57;61.10;98339.53;5155283;27;41156;-75
2022/05/30 01:07:09;;;;;;;1.03;0.70;;;;;;;7.57;61.13;98357.13;5150685;27;41565;-75
2022/05/30 01:09:40;;;;;;;1.60;0.83;;;;;;;7.52;61.12;98340.75;5138582;27;41908;-77
2022/05/30 01:12:11;;;;;;;0.70;0.70;;;;;;;7.50;61.33;98339.97;5153775;27;41371;-77
2022/05/30 01:14:42;;;;;;;1.30;0.80;;;;;;;7.42;61.52;98334.28;5155944;27;40861;-76
2022/05/30 01:17:12;;;;;;;0.60;0.60;;;;;;;7.51;62.16;98350.44;5130253;27;41530;-75
2022/05/30 01:19:53;;;;;;;0.80;0.80;;;;;;;7.49;62.18;98357.56;5155489;27;44161;-75
2022/05/30 01:22:40;;;;;;;1.53;1.10;;;;;;;7.48;62.05;98353.25;5154211;27;42163;-77
2022/05/30 01:25:21;;;;;;;0.83;0.83;;;;;;;7.44;62.23;98342.97;5135014;27;39550;-75
2022/05/30 01:28:25;;;;;;;0.70;0.70;;;;;;;7.46;61.81;98346.34;5149656;27;41719;-75
2022/05/30 01:30:55;;;;;;;0.80;0.80;;;;;;;7.44;61.80;98349.09;5151047;27;42682;-74
2022/05/30 01:33:22;;;;;;;1.30;1.20;;;;;;;7.42;61.99;98350.09;5136204;27;42277;-77
2022/05/30 01:35:51;;;;;;;0.80;0.80;;;;;;;7.38;62.10;98343.34;5137129;27;40345;-78
2022/05/30 01:38:20;;;;;;;0.90;0.80;;;;;;;7.38;62.23;98341.56;5136174;27;40896;-77
2022/05/30 01:40:52;;;;;;;3.27;0.80;;;;;;;7.36;62.26;98345.19;5136384;27;43459;-78
2022/05/30 01:43:19;;;;;;;0.60;0.60;;;;;;;7.34;62.35;98334.75;5153523;27;42375;-76
2022/05/30 01:45:53;;;;;;;0.70;0.60;;;;;;;7.32;62.39;98330.50;5152733;27;40719;-74
2022/05/30 01:48:21;;;;;;;0.77;0.77;;;;;;;7.20;62.25;98313.63;5151257;27;42723;-75
2022/05/30 01:50:49;;;;;;;0.70;0.70;;;;;;;7.28;62.04;98331.63;5137453;27;43930;-77
2022/05/30 01:53:28;;;;;;;0.83;0.73;;;;;;;7.20;62.33;98325.00;5153174;27;42247;-75
2022/05/30 01:56:19;;;;;;;0.93;0.73;;;;;;;7.21;62.22;98325.84;5134307;27;39692;-76
2022/05/30 01:58:47;;;;;;;0.53;0.53;;;;;;;7.18;62.36;98326.03;5137227;27;40886;-75
2022/05/30 02:01:45;;;;;;;0.77;0.70;;;;;;;7.14;62.29;98324.53;5140299;27;42808;-76
2022/05/30 02:04:18;;;;;;;1.23;0.77;;;;;;;7.11;62.31;98329.97;5123992;27;42504;-76
2022/05/30 02:06:45;;;;;;;0.60;0.60;;;;;;;7.08;62.55;98314.31;5116002;27;40215;-76
2022/05/30 02:09:15;;;;;;;0.80;0.80;;;;;;;6.69;62.34;98263.00;5115060;27;43104;-76
2022/05/30 02:11:44;;;;;;;1.90;0.97;;;;;;;7.02;62.67;98314.69;5149020;27;43733;-74
2022/05/30 02:14:26;;;;;;;1.23;0.67;;;;;;;6.99;63.03;98317.50;5146851;27;43447;-77
2022/05/30 02:17:00;;;;;;;1.37;0.90;;;;;;;6.94;63.38;98316.88;5149733;27;39998;-75
2022/05/30 02:19:29;;;;;;;1.20;0.80;;;;;;;6.76;63.90;98298.59;5133925;27;40855;-76
2022/05/30 02:21:57;;;;;;;1.27;1.10;;;;;;;6.73;63.74;98304.00;5150901;27;41639;-74
2022/05/30 02:24:26;;;;;;;0.87;0.87;;;;;;;6.84;63.48;98327.94;5116645;27;41376;-78
2022/05/30 02:26:53;;;;;;;1.43;0.77;;;;;;;6.79;63.53;98327.38;5133437;27;40940;-76
2022/05/30 02:29:21;;;;;;;0.90;0.80;;;;;;;6.76;63.62;98319.63;5133763;27;41067;-77
2022/05/30 02:32:00;;;;;;;1.10;1.00;;;;;;;6.75;63.69;98323.19;5131394;27;43345;-76
2022/05/30 02:37:14;;;;;;;0.70;0.70;;;;;;;6.60;64.44;98297.72;5074875;27;39847;-76
2022/05/30 02:39:43;;;;;;;0.80;0.80;;;;;;;6.69;63.93;98312.16;5133625;27;43796;-77
2022/05/30 02:42:29;;;;;;;1.20;1.10;;;;;;;6.67;64.58;98320.16;5133189;27;43070;-76
2022/05/30 02:44:59;;;;;;;0.53;0.53;;;;;;;6.66;64.45;98310.56;5151034;27;42322;-75
2022/05/30 02:47:28;;;;;;;1.43;1.23;;;;;;;6.64;64.35;98320.31;5133404;27;40898;-74
2022/05/30 02:50:03;;;;;;;0.80;0.80;;;;;;;6.63;64.36;98318.63;5150979;27;41387;-77
2022/05/30 02:52:31;;;;;;;1.10;0.90;;;;;;;6.63;64.51;98313.34;5133165;27;42965;-76
2022/05/30 02:54:59;;;;;;;1.40;0.87;;;;;;;6.63;64.59;98321.25;5130506;27;42298;-77
2022/05/30 02:57:37;;;;;;;1.00;0.70;;;;;;;6.60;64.42;98307.41;5131876;27;39896;-78
2022/05/30 03:00:05;;;;;;;0.70;0.70;;;;;;;6.61;64.51;98320.47;5152667;27;41999;-75
2022/05/30 03:02:42;;;;;;;1.10;0.90;;;;;;;6.61;64.35;98320.47;5134831;27;43971;-77
2022/05/30 03:05:10;;;;;;;1.37;0.97;;;;;;;6.48;64.15;98295.78;5148273;27;43489;-76
2022/05/30 03:07:37;;;;;;;0.90;0.90;;;;;;;6.58;64.29;98312.75;5135791;27;40091;-78
2022/05/30 03:10:16;;;;;;;1.17;1.00;;;;;;;6.59;64.70;98306.56;5125456;27;42467;-76
2022/05/30 03:12:55;;;;;;;0.63;0.63;;;;;;;6.59;64.99;98309.19;5148571;27;42779;-75
2022/05/30 03:15:23;;;;;;;0.80;0.80;;;;;;;6.59;65.03;98305.69;5114590;27;41543;-76
2022/05/30 03:17:52;;;;;;;0.80;0.80;;;;;;;6.59;65.15;98311.81;5114338;27;39047;-75
2022/05/30 03:20:20;;;;;;;0.60;0.60;;;;;;;6.53;64.98;98301.63;5114368;27;41192;-76
2022/05/30 03:22:49;;;;;;;0.73;0.73;;;;;;;6.63;65.08;98317.75;5114191;27;41707;-78
2022/05/30 03:25:35;;;;;;;0.93;0.90;;;;;;;6.62;64.77;98311.66;5132109;27;41135;-75
2022/05/30 03:28:04;;;;;;;0.67;0.67;;;;;;;6.66;64.68;98318.44;5115440;27;40068;-77
2022/05/30 03:30:36;;;;;;;1.40;0.77;;;;;;;6.70;64.43;98322.59;5132790;27;41628;-76
2022/05/30 03:33:07;;;;;;;0.73;0.73;;;;;;;6.73;64.39;98325.06;5149367;27;42723;-77
2022/05/30 03:35:36;;;;;;;1.20;1.10;;;;;;;6.77;64.70;98326.59;5129773;27;42316;-77
2022/05/30 03:38:24;;;;;;;0.77;0.77;;;;;;;6.82;64.88;98327.16;5149904;27;39157;-78
2022/05/30 03:41:11;;;;;;;1.60;0.90;;;;;;;6.89;64.86;98329.47;5133635;27;42501;-76
2022/05/30 03:43:45;;;;;;;1.47;1.00;;;;;;;6.95;65.67;98329.13;5115289;27;42338;-76
2022/05/30 03:46:13;;;;;;;1.30;1.17;;;;;;;7.02;65.74;98322.59;5129927;27;42945;-75
2022/05/30 03:48:42;;;;;;;0.93;0.83;;;;;;;7.09;65.74;98332.66;5130904;27;40928;-78
2022/05/30 03:51:13;;;;;;;2.20;1.00;;;;;;;7.18;65.13;98326.03;5117655;27;40798;-76
2022/05/30 03:53:43;;;;;;;1.43;1.00;;;;;;;7.29;65.69;98323.66;5149716;27;43915;-77
2022/05/30 03:56:11;;;;;;;1.20;1.10;;;;;;;7.42;65.40;98336.94;5144318;27;42139;-75
2022/05/30 03:58:40;;;;;;;1.27;1.10;;;;;;;7.56;65.46;98329.91;5153056;27;39237;-75
2022/05/30 04:01:09;;;;;;;1.07;0.93;;;;;;;7.70;65.27;98328.25;5151985;27;41507;-76
2022/05/30 04:03:39;;;;;;;1.20;1.10;;;;;;;7.82;65.02;98328.38;5128872;27;43092;-77
2022/05/30 04:06:09;;;;;;;1.43;1.03;;;;;;;7.97;65.54;98337.16;5134443;27;41361;-77
2022/05/30 04:08:38;;;;;;;1.30;1.17;;;;;;;8.07;65.29;98333.03;5134335;27;38868;-75
2022/05/30 04:11:25;;;;;;;1.00;0.90;;;;;;;8.25;65.37;98337.19;5150086;27;42718;-75
2022/05/30 04:14:19;;;;;;;1.37;1.00;;;;;;;8.41;65.07;98341.53;5151702;27;42394;-76
2022/05/30 04:16:53;;;;;;;1.47;0.90;;;;;;;8.53;65.49;98336.34;5133047;27;42018;-76
2022/05/30 04:19:21;;;;;;;1.00;0.90;;;;;;;8.57;65.64;98326.44;5153055;27;40788;-76
2022/05/30 04:21:50;;;;;;;0.93;0.90;;;;;;;8.78;65.48;98345.38;5152456;27;41708;-76
2022/05/30 04:24:25;;;;;;;1.13;1.03;;;;;;;8.79;65.72;98324.13;5149515;27;42738;-74
2022/05/30 04:26:59;;;;;;;2.10;0.80;;;;;;;8.99;65.46;98350.13;5135422;27;41303;-75
2022/05/30 04:29:26;;;;;;;0.90;0.80;;;;;;;9.09;65.29;98341.63;5154105;27;40096;-76
2022/05/30 04:32:12;;;;;;;1.70;0.97;;;;;;;9.09;65.11;98334.53;5153216;27;41425;-75
2022/05/30 04:34:40;;;;;;;1.63;1.13;;;;;;;9.10;64.93;98316.91;5135467;27;42780;-75
2022/05/30 04:37:10;;;;;;;0.80;0.80;;;;;;;9.36;64.88;98351.25;5152657;27;43187;-76
2022/05/30 04:39:38;;;;;;;0.80;0.80;;;;;;;9.13;64.70;98303.50;5153209;27;40664;-78
2022/05/30 04:42:12;;;;;;;1.23;1.13;;;;;;;9.53;64.60;98355.41;5159282;27;41846;-76
2022/05/30 04:45:13;;;;;;;1.80;1.03;;;;;;;9.60;64.42;98356.69;5136803;27;41821;-76
2022/05/30 04:47:51;;;;;;;1.57;0.93;;;;;;;9.56;64.30;98347.28;5159564;27;42441;-76
2022/05/30 04:50:20;;;;;;;0.50;0.50;;;;;;;9.68;64.45;98364.13;5142237;27;38308;-74
2022/05/30 04:52:50;;;;;;;0.60;0.60;;;;;;;9.68;64.16;98362.31;5159998;27;42213;-78
2022/05/30 04:55:50;;;;;;;0.80;0.80;;;;;;;9.66;64.41;98364.22;5122093;27;43629;-77
2022/05/30 04:58:30;;;;;;;0.80;0.80;;;;;;;9.68;64.13;98367.59;5132991;27;44074;-77
2022/05/30 05:01:19;;;;;;;1.20;1.10;;;;;;;9.78;64.26;98369.63;5148459;27;39996;-76
2022/05/30 05:03:47;;;;;;;1.80;1.00;;;;;;;9.89;64.53;98364.50;5151641;27;43090;-76
2022/05/30 05:06:16;;;;;;;1.23;0.90;;;;;;;9.99;64.02;98371.69;5151915;27;42795;-77
2022/05/30 05:08:53;;;;;;;1.77;1.13;;;;;;;10.09;63.91;98374.56;5133942;27;44238;-76
2022/05/30 05:11:53;;;;;;;1.87;0.93;;;;;;;10.21;63.94;98371.09;5128385;27;40198;-74
2022/05/30 05:14:40;;;;;;;1.13;0.80;;;;;;;10.37;63.48;98377.03;5152409;27;40423;-75
2022/05/30 05:17:26;;;;;;;0.83;0.80;;;;;;;10.51;63.45;98377.88;5151478;27;43972;-77
2022/05/30 05:19:54;;;;;;;1.53;1.20;;;;;;;10.48;63.18;98362.22;5152312;27;42070;-76
2022/05/30 05:22:22;;;;;;;1.10;1.00;;;;;;;10.73;62.96;98386.00;5151722;27;39836;-77
2022/05/30 05:24:51;;;;;;;1.60;1.40;;;;;;;10.87;62.79;98387.69;5134780;27;40654;-77
2022/05/30 05:27:18;;;;;;;1.40;1.30;;;;;;;10.97;62.90;98394.88;5151577;27;41770;-75
2022/05/30 05:29:49;;;;;;;1.30;1.20;;;;;;;11.11;62.65;98389.44;5137992;27;42189;-75
2022/05/30 05:32:17;;;;;;;1.30;1.20;;;;;;;11.24;62.23;98401.78;5137456;27;39151;-77
2022/05/30 05:34:45;;;;;;;1.43;1.20;;;;;;;11.36;61.76;98400.91;5155365;27;41617;-76
2022/05/30 05:37:14;;;;;;;1.63;1.53;;;;;;;11.45;61.86;98397.56;5137799;27;44789;-78
2022/05/30 05:39:52;;;;;;;1.43;1.33;;;;;;;11.57;61.64;98394.00;5152310;27;42343;-78
2022/05/30 05:42:20;;;;;;;1.20;1.10;;;;;;;11.67;61.57;98396.81;5155307;27;40881;-78
2022/05/30 05:44:49;;;;;;;1.67;1.27;;;;;;;11.78;61.56;98408.34;5155423;27;42345;-76
2022/05/30 05:47:16;;;;;;;1.43;1.20;;;;;;;11.88;61.55;98403.19;5154714;27;42851;-77
2022/05/30 05:49:44;;;;;;;1.83;1.10;;;;;;;12.03;61.43;98406.53;5137882;27;40989;-80
2022/05/30 05:52:12;;;;;;;1.10;1.00;;;;;;;12.17;60.84;98411.63;5138090;27;39099;-73
2022/05/30 05:54:40;;;;;;;0.97;0.93;;;;;;;12.31;61.12;98408.78;5154843;27;41815;-76
2022/05/30 05:57:11;;;;;;;1.10;1.10;;;;;;;12.46;61.07;98415.56;5137418;27;43246;-77
2022/05/30 05:59:46;;;;;;;1.40;0.87;;;;;;;12.59;60.83;98410.16;5137695;27;42089;-80
2022/05/30 06:02:13;;;;;;;1.07;0.97;;;;;;;12.72;60.77;98416.22;5137135;27;40181;-76
2022/05/30 06:04:42;;;;;;;1.43;0.90;;;;;;;12.84;60.68;98415.25;5155449;27;41832;-78
2022/05/30 06:07:18;;;;;;;1.23;1.17;;;;;;;12.92;60.12;98407.50;5154579;27;42194;-77
2022/05/30 06:10:13;;;;;;;1.37;1.27;;;;;;;13.01;59.82;98416.53;5151621;27;42985;-78
2022/05/30 06:12:48;;;;;;;1.23;1.13;;;;;;;13.11;60.07;98414.84;5136821;27;39852;-76
2022/05/30 06:15:18;;;;;;;1.53;1.17;;;;;;;13.23;60.07;98416.53;5137555;27;40623;-79
2022/05/30 06:17:56;;;;;;;1.57;1.40;;;;;;;13.35;59.61;98416.56;5137397;27;41200;-76
2022/05/30 06:20:24;;;;;;;1.60;1.10;;;;;;;13.48;59.62;98414.56;5155155;27;42269;-78
2022/05/30 06:22:52;;;;;;;2.33;1.20;;;;;;;13.63;59.25;98423.97;5137198;27;40757;-76
2022/05/30 06:25:42;;;;;;;1.90;1.30;;;;;;;13.80;58.96;98422.59;5144679;27;41824;-80
2022/05/30 06:28:33;;;;;;;1.10;1.00;;;;;;;14.00;58.63;98425.28;5152726;27;42346;-77
2022/05/30 06:31:16;;;;;;;1.07;0.97;;;;;;;14.22;57.95;98426.13;5146215;27;43587;-73
2022/05/30 06:33:48;;;;;;;1.20;1.07;;;;;;;14.34;57.42;98430.47;5150237;27;39962;-76
2022/05/30 06:36:23;;;;;;;2.10;1.10;;;;;;;14.47;57.52;98430.25;5135970;27;40718;-72
2022/05/30 06:38:53;;;;;;;1.30;1.10;;;;;;;14.59;56.27;98440.72;5132802;27;42767;-78
2022/05/30 06:41:29;;;;;;;1.20;1.10;;;;;;;14.71;55.99;98439.66;5133366;27;41252;-76
2022/05/30 06:44:04;;;;;;;1.80;1.40;;;;;;;14.87;55.79;98446.34;5135410;27;39193;-74
2022/05/30 06:46:49;;;;;;;2.57;1.30;;;;;;;15.02;55.12;98453.03;5153473;27;43152;-78
2022/05/30 06:49:55;;;;;;;0.90;0.90;;;;;;;15.20;55.02;98454.09;5111087;28;43607;-77
2022/05/30 06:52:27;;;;;;;1.10;1.07;;;;;;;15.34;55.27;98443.03;5092941;28;41868;-78
2022/05/30 06:54:55;;;;;;;1.00;0.80;;;;;;;15.51;54.41;98452.22;5104417;27;43426;-76
2022/05/30 07:00:12;;;;;;;1.13;1.03;;;;;;;15.89;53.02;98464.00;5152920;27;42605;-76
2022/05/30 07:03:00;;;;;;;1.37;1.07;;;;;;;16.11;52.91;98461.88;5132190;27;41669;-76
2022/05/30 07:05:46;;;;;;;1.07;0.97;;;;;;;16.30;52.45;98462.88;5148307;27;39852;-73
2022/05/30 07:08:33;;;;;;;1.13;1.03;;;;;;;16.50;50.10;98477.91;5153482;27;41559;-74
2022/05/30 07:11:13;;;;;;;1.27;1.10;;;;;;;16.67;50.24;98485.25;5136073;27;42433;-79
2022/05/30 07:13:42;;;;;;;1.20;0.90;;;;;;;16.78;50.32;98479.75;5153429;27;43194;-76
2022/05/30 07:16:13;;;;;;;1.30;1.10;;;;;;;16.87;51.02;98473.53;5170668;27;40173;-77
2022/05/30 07:18:42;;;;;;;1.20;1.10;;;;;;;17.06;50.55;98474.47;5167508;27;41458;-76
2022/05/30 07:21:13;;;;;;;1.07;0.97;;;;;;;17.36;50.03;98478.69;5153118;27;43531;-78
2022/05/30 07:23:59;;;;;;;1.33;0.90;;;;;;;17.93;48.41;98505.19;5151060;27;42217;-80
2022/05/30 07:26:44;;;;;;;1.40;0.97;;;;;;;18.88;45.40;98512.66;5153517;27;39147;-76
2022/05/30 07:29:31;;;;;;;1.27;0.80;;;;;;;20.28;42.13;98524.72;5150977;27;42435;-80
2022/05/30 07:32:22;;;;;;;1.20;1.03;;;;;;;21.67;39.31;98544.38;5113807;27;43509;-82
2022/05/30 07:35:09;;;;;;;0.87;0.80;;;;;;;22.46;38.41;98546.91;5152798;27;42640;-81
2022/05/30 07:37:55;;;;;;;0.80;0.80;;;;;;;23.56;36.89;98550.03;5153375;27;38980;-75
2022/05/30 07:40:22;;;;;;;1.23;0.80;;;;;;;24.93;34.59;98550.09;5152013;27;42302;-76
2022/05/30 07:42:50;;;;;;;1.27;1.07;;;;;;;26.40;32.91;98569.84;5153908;27;44071;-80
2022/05/30 07:45:38;;;;;;;0.80;0.80;;;;;;;27.44;30.78;98590.09;5141183;27;42624;-78
2022/05/30 07:48:15;;;;;;;1.03;0.70;;;;;;;27.42;29.70;98575.03;5152478;27;41929;-75
2022/05/30 07:50:45;;;;;;;1.70;0.70;;;;;;;26.67;30.58;98568.88;5151849;27;40660;-72
2022/05/30 07:53:26;;;;;;;0.63;0.63;;;;;;;26.10;31.35;98561.94;5152489;27;42777;-76
2022/05/30 07:56:06;;;;;;;0.70;0.70;;;;;;;26.35;30.63;98567.72;5135143;27;43393;-76
2022/05/30 07:58:33;;;;;;;0.63;0.60;;;;;;;27.48;29.86;98582.34;5134513;27;40367;-76
2022/05/30 08:01:01;;;;;;;0.87;0.60;;;;;;;29.15;28.10;98585.94;5151820;27;41664;-73
2022/05/30 08:03:33;;;;;;;0.60;0.60;;;;;;;30.86;26.04;98601.56;5152216;27;43829;-77
2022/05/30 08:06:22;;;;;;;1.43;1.33;;;;;;;32.55;23.75;98606.22;5150431;27;43035;-73
2022/05/30 08:09:09;;;;;;;0.97;0.83;;;;;;;33.33;22.99;98607.47;5148753;27;40014;-74
2022/05/30 08:11:46;;;;;;;1.20;0.73;;;;;;;33.40;22.19;98616.34;5134616;27;42321;-77
2022/05/30 08:14:35;;;;;;;1.17;0.80;;;;;;;33.75;22.02;98605.13;5152616;27;43644;-74
2022/05/30 08:17:04;;;;;;;0.53;0.53;;;;;;;34.44;21.05;98613.84;5151857;27;42255;-74
2022/05/30 08:19:33;;;;;;;0.80;0.80;;;;;;;35.02;19.62;98615.09;5152067;27;40043;-76
2022/05/30 08:22:06;;;;;;;0.67;0.67;;;;;;;35.51;21.30;98608.41;5152195;27;41803;-75
2022/05/30 08:24:36;;;;;;;0.87;0.87;;;;;;;36.03;20.18;98609.63;5168711;27;42950;-76
2022/05/30 08:27:08;;;;;;;0.67;0.67;;;;;;;35.73;19.69;98613.84;5134489;27;41509;-78
2022/05/30 08:29:57;;;;;;;0.70;0.70;;;;;;;35.21;20.61;98592.44;5134720;27;40394;-76
2022/05/30 08:32:31;;;;;;;0.70;0.70;;;;;;;34.89;20.07;98608.06;5134255;27;42860;-77
2022/05/30 08:35:20;;;;;;;0.80;0.80;;;;;;;34.55;21.01;98591.72;5151166;27;42950;-76
2022/05/30 08:37:48;;;;;;;0.93;0.90;;;;;;;34.67;20.48;98594.31;5151719;27;42089;-76
2022/05/30 08:43:11;;;;;;;0.80;0.80;;;;;;;34.74;19.40;98597.72;5151039;27;42474;-74
2022/05/30 08:45:47;;;;;;;0.60;0.60;;;;;;;32.63;20.97;98588.56;5133761;27;43146;-80
2022/05/30 08:48:40;;;;;;;1.23;0.60;;;;;;;30.94;23.22;98579.34;5134071;27;41491;-77
2022/05/30 08:51:23;;;;;;;0.53;0.53;;;;;;;29.97;24.23;98556.66;5151457;27;38642;-77
2022/05/30 08:54:14;;;;;;;0.50;0.50;;;;;;;28.92;24.80;98561.97;5148177;27;42806;-78
2022/05/30 08:56:57;;;;;;;0.67;0.60;;;;;;;28.44;26.67;98547.13;5134046;27;41796;-78
2022/05/30 09:00:00;;;;;;;0.80;0.80;;;;;;;28.39;26.18;98546.97;5137069;27;42317;-71
2022/05/30 09:02:34;;;;;;;0.53;0.50;;;;;;;27.96;26.21;98554.84;5168970;27;39899;-80
2022/05/30 09:05:09;;;;;;;0.60;0.60;;;;;;;27.08;27.31;98548.88;5151414;27;42399;-80
2022/05/30 09:07:52;;;;;;;0.50;0.50;;;;;;;26.19;28.33;98527.34;5138291;27;41757;-78
2022/05/30 09:10:24;;;;;;;0.53;0.50;;;;;;;25.49;28.89;98517.56;5151470;27;42450;-76
2022/05/30 09:12:59;;;;;;;2.10;0.73;;;;;;;25.09;28.66;98537.28;5153961;27;39952;-76
2022/05/30 09:15:33;;;;;;;0.60;0.60;;;;;;;24.56;29.89;98502.41;5155538;27;42729;-76
2022/05/30 09:18:07;;;;;;;0.40;0.40;;;;;;;24.39;30.99;98517.22;5137836;27;41924;-76
2022/05/30 09:20:37;;;;;;;1.27;0.80;;;;;;;24.26;30.05;98526.03;5138759;27;44202;-78
2022/05/30 09:23:12;;;;;;;0.60;0.60;;;;;;;24.08;31.24;98514.75;5148630;27;40374;-79
2022/05/30 09:26:00;;;;;;;0.67;0.40;;;;;;;24.03;31.11;98524.47;5148094;27;42495;-76
2022/05/30 09:29:03;;;;;;;0.83;0.50;;;;;;;24.14;31.46;98515.84;5090220;27;44086;-77
2022/05/30 09:31:43;;;;;;;2.07;0.50;;;;;;;24.94;30.72;98516.53;5154680;27;43042;-80
2022/05/30 09:34:36;;;;;;;1.33;1.23;;;;;;;26.44;29.95;98516.78;5153831;27;38865;-76
2022/05/30 09:37:29;;;;;;;0.50;0.50;;;;;;;27.60;27.98;98517.25;5154845;27;40958;-74
2022/05/30 09:40:11;;;;;;;0.40;0.40;;;;;;;27.90;27.90;98526.63;5136304;27;43240;-78
2022/05/30 09:42:55;;;;;;;0.70;0.50;;;;;;;29.98;24.82;98533.75;5151892;27;42398;-79
2022/05/30 09:45:28;;;;;;;0.50;0.50;;;;;;;31.62;23.65;98552.38;5154375;27;40352;-81
2022/05/30 09:48:12;;;;;;;0.50;0.50;;;;;;;33.00;22.07;98559.69;5154858;27;41008;-81
2022/05/30 09:50:44;;;;;;;0.47;0.43;;;;;;;34.35;20.96;98563.97;5151492;27;42516;-79
2022/05/30 09:53:13;;;;;;;0.73;0.73;;;;;;;35.67;19.55;98576.31;5137374;27;42749;-82
2022/05/30 09:55:48;;;;;;;0.70;0.70;;;;;;;35.99;17.75;98588.09;5154457;27;40659;-80
2022/05/30 09:58:43;;;;;;;1.00;0.70;;;;;;;34.96;18.42;98586.69;5137031;27;41710;-82
2022/05/30 10:01:27;;;;;;;0.87;0.73;;;;;;;33.58;19.98;98572.19;5133963;27;42805;-80
2022/05/30 10:04:14;;;;;;;0.60;0.60;;;;;;;32.58;21.77;98558.28;5117398;27;41353;-75
2022/05/30 10:07:09;;;;;;;0.97;0.70;;;;;;;32.28;22.65;98544.81;5171544;27;41135;-77
2022/05/30 10:09:54;;;;;;;0.57;0.57;;;;;;;32.53;20.46;98564.50;5154079;27;40706;-83
2022/05/30 10:12:53;;;;;;;1.73;1.63;;;;;;;32.54;20.74;98563.44;5135693;27;43096;-76
2022/05/30 10:15:33;;;;;;;0.73;0.50;;;;;;;31.17;20.48;98578.59;5135068;27;42868;-76
2022/05/30 10:18:25;;;;;;;0.70;0.50;;;;;;;30.12;22.99;98562.56;5151321;27;39927;-80
2022/05/30 10:21:20;;;;;;;0.40;0.40;;;;;;;29.32;23.41;98556.19;5135541;27;40922;-78
2022/05/30 10:28:17;;;;;;;0.93;0.60;;;;;;;27.53;24.45;98549.91;5119250;27;42061;-79
2022/05/30 10:31:34;;;;;;;0.40;0.40;;;;;;;27.43;25.13;98534.03;5151635;27;41103;-80
2022/05/30 10:34:40;;;;;;;0.50;0.40;;;;;;;27.36;25.33;98549.50;5151568;27;42783;-75
2022/05/30 10:37:29;;;;;;;0.50;0.50;;;;;;;27.20;25.70;98533.59;5150931;27;42707;-78
2022/05/30 10:40:09;;;;;;;0.50;0.50;;;;;;;27.08;25.17;98552.41;5152803;27;42296;-77
2022/05/30 10:42:40;;;;;;;0.50;0.50;;;;;;;26.79;25.52;98548.22;5136213;27;40206;-76
2022/05/30 10:45:18;;;;;;;1.13;0.50;;;;;;;26.48;26.32;98534.34;5153897;27;41534;-80
2022/05/30 10:47:48;;;;;;;0.60;0.53;;;;;;;26.23;27.23;98534.00;5150640;27;43801;-77
2022/05/30 10:50:24;;;;;;;0.43;0.40;;;;;;;25.90;26.97;98530.34;5135788;27;41184;-77
2022/05/30 10:52:59;;;;;;;0.57;0.47;;;;;;;25.58;28.40;98532.66;5151102;27;39816;-76
2022/05/30 10:55:52;;;;;;;0.77;0.60;;;;;;;25.20;29.18;98518.63;5135763;27;40430;-76
2022/05/30 10:58:27;;;;;;;1.40;0.63;;;;;;;24.87;28.58;98528.28;5135989;27;43572;-73
2022/05/30 11:01:01;;;;;;;1.37;0.50;;;;;;;24.57;28.87;98520.34;5149660;27;42367;-75
2022/05/30 11:03:36;;;;;;;0.50;0.40;;;;;;;24.39;29.82;98510.97;5152868;27;38480;-75
2022/05/30 11:06:09;;;;;;;1.30;0.70;;;;;;;24.43;29.51;98526.63;5132138;27;41026;-77
2022/05/30 11:08:50;;;;;;;0.83;0.50;;;;;;;24.39;30.37;98525.34;5132589;27;41833;-77
2022/05/30 11:11:23;;;;;;;1.07;0.50;;;;;;;24.36;29.77;98527.59;5115569;27;41470;-77
2022/05/30 11:14:14;;;;;;;0.63;0.50;;;;;;;24.40;29.49;98531.59;5134811;27;38835;-76
2022/05/30 11:17:10;;;;;;;2.13;0.67;;;;;;;24.56;29.86;98526.78;5152146;27;40982;-77
2022/05/30 11:20:05;;;;;;;0.83;0.50;;;;;;;25.07;30.28;98523.94;5100070;27;42137;-73
2022/05/30 11:22:46;;;;;;;0.50;0.50;;;;;;;25.55;28.35;98532.19;5129151;27;42139;-73
2022/05/30 11:25:16;;;;;;;0.47;0.47;;;;;;;25.94;28.07;98532.47;5145210;27;41025;-74
2022/05/30 11:27:53;;;;;;;1.07;0.40;;;;;;;26.19;28.60;98534.66;5153399;27;42474;-77
2022/05/30 11:30:43;;;;;;;0.80;0.50;;;;;;;26.52;26.52;98546.47;5151586;27;43495;-76
2022/05/30 11:33:47;;;;;;;0.83;0.33;;;;;;;26.90;26.62;98545.91;5154285;27;42347;-79
2022/05/30 11:36:38;;;;;;;0.50;0.43;;;;;;;27.68;26.36;98546.97;5130027;27;40016;-74
2022/05/30 11:39:17;;;;;;;0.63;0.63;;;;;;;28.67;27.93;98531.09;5116964;27;40474;-78
2022/05/30 11:41:55;;;;;;;0.90;0.50;;;;;;;29.19;24.20;98564.47;5149733;27;42556;-81
2022/05/30 11:44:46;;;;;;;1.80;0.67;;;;;;;30.14;24.11;98560.44;5151494;27;42396;-74
2022/05/30 11:47:25;;;;;;;1.20;0.70;;;;;;;30.49;24.29;98562.53;5153265;27;38915;-78
2022/05/30 11:50:03;;;;;;;0.50;0.40;;;;;;;29.97;23.34;98567.56;5151930;27;40770;-78
2022/05/30 11:52:41;;;;;;;0.47;0.47;;;;;;;29.34;24.39;98569.59;5149522;27;43529;-76
2022/05/30 11:55:21;;;;;;;0.80;0.50;;;;;;;28.65;24.00;98575.97;5151687;27;42855;-80
2022/05/30 11:57:54;;;;;;;0.67;0.50;;;;;;;27.94;25.50;98560.53;5152365;27;40169;-77
2022/05/30 12:00:34;;;;;;;0.60;0.40;;;;;;;27.44;26.60;98568.34;5155165;27;41823;-79
2022/05/30 12:03:32;;;;;;;0.40;0.40;;;;;;;26.97;26.58;98560.34;5133045;27;43240;-78
2022/05/30 12:06:22;;;;;;;0.70;0.60;;;;;;;26.72;26.41;98569.06;5148905;27;43295;-74
2022/05/30 12:09:16;;;;;;;0.53;0.40;;;;;;;26.72;27.87;98558.19;5153535;27;39900;-73
2022/05/30 12:12:01;;;;;;;0.50;0.50;;;;;;;27.22;26.57;98560.59;5152873;27;42241;-76
2022/05/30 12:15:03;;;;;;;0.73;0.50;;;;;;;29.90;25.07;98553.16;5133901;27;43064;-76
2022/05/30 12:23:50;;;;;;;0.70;0.60;;;;;;;36.61;18.88;98592.00;5131384;27;42127;-84
2022/05/30 12:26:56;;;;;;;1.13;0.70;;;;;;;35.93;18.92;98602.97;5131227;27;43933;-80
2022/05/30 12:29:48;;;;;;;1.60;0.63;;;;;;;35.01;18.49;98603.25;5136029;27;43446;-77
2022/05/30 12:32:33;;;;;;;0.90;0.60;;;;;;;36.12;19.79;98602.50;5152365;27;39972;-77
2022/05/30 12:35:29;;;;;;;0.70;0.50;;;;;;;35.31;18.81;98611.00;5135011;27;41546;-83
2022/05/30 12:38:11;;;;;;;1.03;0.80;;;;;;;34.43;18.91;98610.25;5151833;27;41460;-79
2022/05/30 12:40:41;;;;;;;1.33;0.53;;;;;;;33.61;18.64;98614.81;5153078;27;42995;-82
2022/05/30 12:43:35;;;;;;;0.83;0.43;;;;;;;32.78;20.82;98597.09;5152260;27;38697;-83
2022/05/30 12:46:16;;;;;;;0.67;0.63;;;;;;;32.09;21.66;98577.00;5151260;27;41818;-80